Terminal Aerodrome Forecast
Issued by NWS Bismarck, ND

Home | Current Version | Previous Version | Text Only | Print | Product List | Glossary Off
Versions: 1 2 3 4 5 6 7 8 9 10 11 12 13 14 15 16 17 18 19 20 21 22

000
FTUS43 KBIS 161100
TAFBIS
TAF
KBIS 161120Z 1612/1712 36009KT P6SM -SN OVC025
      TEMPO 1615/1618 SCT025
     FM161800 01006KT P6SM SCT035
     FM170000 09005KT P6SM SKC=

USA.gov is the U.S. government's official web portal to all federal, state and local government web resources and services.